Time;durP1;ratioP1;P1;durP2;ratioP2;P2;SDS_P1;SDS_P2;PMS_P1;PMS_P2;Temp;Humidity;BMP_temperature;BMP_pressure;BME280_temperature;BME280_humidity;BME280_pressure;Samples;Min_cycle;Max_cycle;Signal;HPM_P1;HPM_P2
2023/05/09 00:01:11;;;;;;;1.38;1.38;;;;;;;14.00;100.00;96018.25;5053029;28;20465;-69
2023/05/09 00:03:37;;;;;;;1.50;1.50;;;;;;;14.00;100.00;96015.63;5054440;28;20321;-70
2023/05/09 00:06:03;;;;;;;8.93;1.60;;;;;;;13.97;100.00;96018.59;5054239;28;20055;-69
2023/05/09 00:08:28;;;;;;;2.63;1.70;;;;;;;13.98;100.00;96016.78;5055510;28;20024;-70
2023/05/09 00:10:54;;;;;;;1.90;1.35;;;;;;;13.95;100.00;96009.97;5066602;28;20774;-70
2023/05/09 00:13:19;;;;;;;1.73;1.60;;;;;;;13.88;100.00;96014.22;5051561;28;20074;-70
2023/05/09 00:15:45;;;;;;;2.03;1.70;;;;;;;13.87;100.00;96018.69;5051859;28;20033;-69
2023/05/09 00:18:11;;;;;;;2.35;1.55;;;;;;;13.83;100.00;96008.56;5056937;28;20067;-70
2023/05/09 00:20:39;;;;;;;1.70;1.30;;;;;;;13.82;100.00;96009.56;5056152;28;20021;-69
2023/05/09 00:23:06;;;;;;;1.60;1.50;;;;;;;13.77;100.00;96007.38;5052395;28;20386;-70
2023/05/09 00:25:31;;;;;;;1.23;1.23;;;;;;;13.71;100.00;96014.09;5056739;28;20497;-69
2023/05/09 00:27:57;;;;;;;1.58;1.52;;;;;;;13.67;100.00;96006.63;5051478;28;20075;-70
2023/05/09 00:30:22;;;;;;;1.70;1.52;;;;;;;13.66;100.00;96002.31;5055842;28;20032;-70
2023/05/09 00:32:48;;;;;;;2.88;1.77;;;;;;;13.69;100.00;96005.50;5050531;28;20028;-70
2023/05/09 00:35:13;;;;;;;2.72;1.60;;;;;;;13.67;100.00;96002.16;5056926;28;20143;-70
2023/05/09 00:37:39;;;;;;;1.35;1.35;;;;;;;13.70;100.00;96001.00;5048461;28;20036;-70
2023/05/09 00:40:06;;;;;;;1.67;1.58;;;;;;;13.74;100.00;95994.44;5051688;28;20048;-70
2023/05/09 00:42:31;;;;;;;1.40;1.30;;;;;;;13.78;100.00;95995.81;5045778;28;20056;-70
2023/05/09 00:44:57;;;;;;;1.50;1.40;;;;;;;13.84;100.00;96003.13;5049666;28;20402;-70
2023/05/09 00:47:24;;;;;;;2.80;1.67;;;;;;;13.84;100.00;95995.19;5048495;28;20041;-70
2023/05/09 00:49:49;;;;;;;2.08;1.90;;;;;;;13.92;100.00;95991.75;5052178;28;20036;-71
2023/05/09 00:52:16;;;;;;;1.80;1.70;;;;;;;13.97;100.00;95992.13;5063603;28;20063;-70
2023/05/09 00:54:41;;;;;;;2.95;1.80;;;;;;;13.90;100.00;95986.59;5051980;28;20025;-70
2023/05/09 00:57:07;;;;;;;4.05;2.05;;;;;;;13.99;100.00;95989.31;5054201;28;20032;-70
2023/05/09 00:59:33;;;;;;;1.67;1.58;;;;;;;13.91;100.00;95987.44;5067684;28;20025;-70
2023/05/09 01:01:58;;;;;;;1.75;1.65;;;;;;;13.87;100.00;95980.81;5049779;28;20032;-70
2023/05/09 01:04:24;;;;;;;1.63;1.52;;;;;;;13.89;100.00;95979.66;5054124;28;20024;-70
2023/05/09 01:07:12;;;;;;;2.35;1.80;;;;;;;13.88;100.00;95985.13;5051810;28;20068;-70
2023/05/09 01:10:03;;;;;;;3.30;1.50;;;;;;;13.95;100.00;95980.84;5052213;28;20052;-70
2023/05/09 01:12:28;;;;;;;2.45;1.73;;;;;;;13.89;100.00;95977.00;5046759;28;20501;-69
2023/05/09 01:15:09;;;;;;;2.05;1.85;;;;;;;13.84;100.00;95976.66;5045760;28;20131;-70
2023/05/09 01:17:44;;;;;;;2.10;1.60;;;;;;;13.87;100.00;95978.16;5049425;28;20021;-69
2023/05/09 01:20:21;;;;;;;5.37;1.80;;;;;;;13.85;100.00;95975.66;5047158;28;20179;-70
2023/05/09 01:23:00;;;;;;;3.30;1.70;;;;;;;13.83;100.00;95972.34;5041748;28;20271;-70
2023/05/09 01:25:46;;;;;;;1.55;1.40;;;;;;;13.75;100.00;95959.88;5052539;28;20020;-70
2023/05/09 01:28:30;;;;;;;1.90;1.80;;;;;;;13.73;100.00;95961.84;5049397;28;20100;-70
2023/05/09 01:30:56;;;;;;;3.15;1.90;;;;;;;13.71;100.00;95966.47;5051857;28;20021;-70
2023/05/09 01:33:25;;;;;;;1.90;1.80;;;;;;;13.68;100.00;95953.56;5067049;28;20048;-70
2023/05/09 01:35:57;;;;;;;1.80;1.67;;;;;;;13.61;100.00;95949.88;5047465;28;20063;-70
2023/05/09 01:38:24;;;;;;;3.15;1.85;;;;;;;13.54;100.00;95948.81;5069057;28;20096;-70
2023/05/09 01:40:53;;;;;;;2.15;1.83;;;;;;;13.51;100.00;95949.13;5049328;28;20516;-70
2023/05/09 01:43:20;;;;;;;1.63;1.63;;;;;;;13.48;100.00;95944.97;5050041;28;20025;-70
2023/05/09 01:45:47;;;;;;;5.15;1.80;;;;;;;13.45;100.00;95950.56;5048688;28;20083;-70
2023/05/09 01:48:14;;;;;;;1.98;1.88;;;;;;;13.46;100.00;95950.44;5047014;28;20029;-71
2023/05/09 01:50:42;;;;;;;2.90;2.63;;;;;;;13.47;100.00;95945.97;5052354;28;20024;-70
2023/05/09 01:53:10;;;;;;;6.00;2.00;;;;;;;13.45;100.00;95954.06;5052003;28;20548;-70
2023/05/09 01:55:38;;;;;;;1.77;1.67;;;;;;;13.45;100.00;95962.00;5054421;28;20485;-70
2023/05/09 01:58:04;;;;;;;1.75;1.73;;;;;;;13.46;100.00;95952.22;5048480;28;20025;-70
2023/05/09 02:00:32;;;;;;;2.83;1.60;;;;;;;13.43;100.00;95961.31;5055138;28;20469;-70
2023/05/09 02:02:58;;;;;;;1.90;1.80;;;;;;;13.44;100.00;95955.03;5041443;28;20078;-70
2023/05/09 02:05:27;;;;;;;4.05;1.80;;;;;;;13.46;100.00;95954.88;5050215;28;20021;-71
2023/05/09 02:07:57;;;;;;;1.90;1.60;;;;;;;13.43;100.00;95953.38;5065398;28;20029;-71
2023/05/09 02:10:24;;;;;;;2.38;1.80;;;;;;;13.40;100.00;95943.09;5054810;28;20033;-70
2023/05/09 02:12:50;;;;;;;3.08;1.73;;;;;;;13.42;100.00;95942.91;5052027;28;20086;-71
2023/05/09 02:15:16;;;;;;;2.28;1.90;;;;;;;13.43;100.00;95942.81;5051137;28;20577;-70
2023/05/09 02:17:41;;;;;;;1.63;1.52;;;;;;;13.44;100.00;95943.63;5052851;28;20028;-70
2023/05/09 02:20:08;;;;;;;2.05;1.77;;;;;;;13.43;100.00;95947.25;5050709;28;20035;-70
2023/05/09 02:22:35;;;;;;;3.28;1.90;;;;;;;13.37;100.00;95950.50;5053135;28;20016;-70
2023/05/09 02:25:03;;;;;;;1.80;1.70;;;;;;;13.36;100.00;95949.66;5053094;28;20021;-70
2023/05/09 02:27:31;;;;;;;2.78;1.75;;;;;;;13.33;100.00;95953.44;5051026;28;20017;-70
2023/05/09 02:30:00;;;;;;;4.18;1.70;;;;;;;13.32;100.00;95956.22;5050823;28;20060;-70
2023/05/09 02:32:29;;;;;;;3.70;2.05;;;;;;;13.35;100.00;95960.38;5053275;28;20029;-70
2023/05/09 02:34:57;;;;;;;3.45;2.05;;;;;;;13.35;100.00;95965.69;5053889;28;20493;-70
2023/05/09 02:37:23;;;;;;;2.33;1.95;;;;;;;13.33;100.00;95953.44;5048918;28;20029;-71
2023/05/09 02:39:48;;;;;;;3.17;2.97;;;;;;;13.31;100.00;95951.91;5051915;28;20544;-70
2023/05/09 02:42:20;;;;;;;2.58;2.40;;;;;;;13.28;100.00;95944.31;5049599;28;20111;-70
2023/05/09 02:44:45;;;;;;;2.20;2.10;;;;;;;13.30;100.00;95942.31;5049794;28;20063;-70
2023/05/09 02:47:10;;;;;;;1.75;1.60;;;;;;;13.31;100.00;95941.34;5049565;28;20044;-70
2023/05/09 02:49:36;;;;;;;1.80;1.70;;;;;;;13.28;100.00;95942.50;5045184;28;20397;-70
2023/05/09 02:52:01;;;;;;;2.10;2.00;;;;;;;13.27;100.00;95935.56;5047428;28;20017;-70
2023/05/09 02:54:27;;;;;;;2.90;1.80;;;;;;;13.25;100.00;95944.59;5033835;28;20033;-70
2023/05/09 02:56:52;;;;;;;1.67;1.63;;;;;;;13.24;100.00;95953.53;5052956;28;20025;-70
2023/05/09 02:59:19;;;;;;;1.80;1.70;;;;;;;13.23;100.00;95955.31;5052818;28;20032;-70
2023/05/09 03:01:45;;;;;;;1.75;1.65;;;;;;;13.16;100.00;95947.19;5052592;28;20021;-70
2023/05/09 03:04:10;;;;;;;8.68;1.92;;;;;;;13.18;100.00;95945.22;5045104;28;20031;-70
2023/05/09 03:06:36;;;;;;;2.35;1.95;;;;;;;13.22;100.00;95947.56;5050289;28;20032;-71
2023/05/09 03:09:02;;;;;;;1.73;1.63;;;;;;;13.17;100.00;95948.84;5053401;28;20137;-70
2023/05/09 03:11:28;;;;;;;2.08;1.88;;;;;;;13.10;100.00;95946.97;5058316;28;20485;-70
2023/05/09 03:13:54;;;;;;;2.20;2.00;;;;;;;13.02;100.00;95947.72;5053781;28;20105;-70
2023/05/09 03:16:19;;;;;;;1.80;1.70;;;;;;;12.98;100.00;95947.19;5066081;28;20112;-70
2023/05/09 03:18:45;;;;;;;3.33;2.00;;;;;;;12.94;100.00;95947.66;5055091;28;20485;-70
2023/05/09 03:21:10;;;;;;;2.05;1.95;;;;;;;12.88;100.00;95934.03;5056275;28;20032;-70
2023/05/09 03:23:35;;;;;;;2.20;1.88;;;;;;;12.88;100.00;95941.16;5056485;28;20021;-70
2023/05/09 03:26:01;;;;;;;2.05;1.90;;;;;;;12.90;100.00;95942.63;5051865;28;20092;-70
2023/05/09 03:28:27;;;;;;;4.22;1.58;;;;;;;12.89;100.00;95940.16;5051508;28;20045;-71
2023/05/09 03:30:53;;;;;;;3.40;1.75;;;;;;;12.87;100.00;95937.66;5054324;28;20023;-70
2023/05/09 03:33:18;;;;;;;3.70;2.10;;;;;;;12.86;100.00;95941.28;5052207;28;20013;-70
2023/05/09 03:35:43;;;;;;;3.30;2.13;;;;;;;12.86;100.00;95948.41;5054523;28;20037;-70
2023/05/09 03:38:09;;;;;;;2.53;1.90;;;;;;;12.86;100.00;95951.03;5048380;28;20028;-70
2023/05/09 03:40:34;;;;;;;1.80;1.70;;;;;;;12.83;100.00;95952.16;5054312;28;20032;-70
2023/05/09 03:43:00;;;;;;;1.77;1.67;;;;;;;12.78;100.00;95949.13;5055528;28;20076;-70
2023/05/09 03:45:25;;;;;;;2.10;2.00;;;;;;;12.79;100.00;95945.50;5055297;28;20028;-70
2023/05/09 03:47:50;;;;;;;2.08;1.80;;;;;;;12.78;100.00;95935.09;5056708;28;20020;-70
2023/05/09 03:50:16;;;;;;;3.13;2.08;;;;;;;12.80;100.00;95933.13;5056115;28;20094;-70
2023/05/09 03:52:41;;;;;;;4.97;2.08;;;;;;;12.80;100.00;95931.31;5057551;28;20397;-70
2023/05/09 03:55:07;;;;;;;3.63;1.75;;;;;;;12.79;100.00;95928.81;5057380;28;20389;-70
2023/05/09 03:57:34;;;;;;;3.97;1.83;;;;;;;12.78;100.00;95924.50;5057335;28;20029;-70
2023/05/09 04:00:00;;;;;;;1.50;1.50;;;;;;;12.75;100.00;95923.03;5057552;28;20029;-70
2023/05/09 04:02:26;;;;;;;1.92;1.83;;;;;;;12.72;100.00;95929.44;5057037;28;20040;-70
2023/05/09 04:04:51;;;;;;;1.75;1.67;;;;;;;12.74;100.00;95931.94;5046170;28;20021;-70
2023/05/09 04:07:18;;;;;;;3.45;1.95;;;;;;;12.71;100.00;95926.91;5065759;28;20392;-70
2023/05/09 04:09:43;;;;;;;2.00;1.90;;;;;;;12.64;100.00;95932.00;5048413;28;20331;-70
2023/05/09 04:12:09;;;;;;;2.20;2.10;;;;;;;12.59;100.00;95932.44;5056676;28;20505;-70
2023/05/09 04:14:35;;;;;;;1.80;1.80;;;;;;;12.57;100.00;95944.94;5057430;28;20039;-70
2023/05/09 04:17:00;;;;;;;2.08;1.90;;;;;;;12.60;100.00;95943.84;5057266;28;20029;-71
2023/05/09 04:19:25;;;;;;;2.40;1.90;;;;;;;12.60;100.00;95944.66;5055414;28;20063;-70
2023/05/09 04:21:51;;;;;;;2.80;1.98;;;;;;;12.66;100.00;95945.88;5056743;28;20066;-70
2023/05/09 04:24:16;;;;;;;1.90;1.80;;;;;;;12.60;100.00;95942.00;5057009;28;20111;-70
2023/05/09 04:26:42;;;;;;;3.20;1.90;;;;;;;12.60;100.00;95936.72;5056836;28;20009;-70
2023/05/09 04:29:07;;;;;;;1.83;1.73;;;;;;;12.59;100.00;95935.06;5055879;28;20075;-70
2023/05/09 04:31:33;;;;;;;2.20;2.00;;;;;;;12.58;100.00;95932.56;5056899;28;20029;-70
2023/05/09 04:33:59;;;;;;;2.30;2.20;;;;;;;12.51;100.00;95935.00;5072029;28;20117;-70
2023/05/09 04:36:26;;;;;;;3.92;2.17;;;;;;;12.52;100.00;95938.44;5055056;28;20033;-70
2023/05/09 04:38:51;;;;;;;4.20;2.17;;;;;;;12.55;100.00;95936.34;5056173;28;20041;-72
2023/05/09 04:41:17;;;;;;;2.30;2.10;;;;;;;12.60;100.00;95936.72;5058953;28;20029;-70
2023/05/09 04:43:42;;;;;;;2.67;2.45;;;;;;;12.67;100.00;95934.34;5055173;28;20063;-71
2023/05/09 04:46:08;;;;;;;3.20;2.38;;;;;;;12.74;100.00;95931.94;5055556;28;20032;-70
2023/05/09 04:48:34;;;;;;;2.60;2.40;;;;;;;12.82;100.00;95931.16;5054845;28;20074;-70
2023/05/09 04:51:00;;;;;;;3.92;2.15;;;;;;;12.85;100.00;95931.69;5053958;28;20021;-70
2023/05/09 04:53:27;;;;;;;3.30;2.20;;;;;;;12.88;100.00;95928.75;5055615;28;20028;-70
2023/05/09 04:55:53;;;;;;;5.75;3.40;;;;;;;12.92;100.00;95928.44;5042293;28;20394;-71
2023/05/09 04:58:18;;;;;;;3.70;3.33;;;;;;;12.95;100.00;95923.69;5055578;28;20146;-71
2023/05/09 05:00:43;;;;;;;4.07;3.78;;;;;;;12.98;100.00;95923.38;5056079;28;20032;-71
2023/05/09 05:03:09;;;;;;;3.10;2.80;;;;;;;13.08;100.00;95923.31;5056055;28;20025;-70
2023/05/09 05:05:34;;;;;;;2.90;2.17;;;;;;;13.11;100.00;95916.91;5054453;28;20101;-70
2023/05/09 05:08:00;;;;;;;2.13;1.92;;;;;;;13.16;100.00;95919.91;5056364;28;20125;-70
2023/05/09 05:10:25;;;;;;;2.20;1.90;;;;;;;13.20;100.00;95915.97;5054493;28;20047;-70
2023/05/09 05:12:51;;;;;;;4.65;1.70;;;;;;;13.30;100.00;95921.19;5056137;28;20138;-70
2023/05/09 05:15:18;;;;;;;2.50;1.95;;;;;;;13.38;100.00;95918.63;5046771;28;20029;-71
2023/05/09 05:17:43;;;;;;;2.65;1.80;;;;;;;13.40;100.00;95919.28;5064738;28;20013;-71
2023/05/09 05:20:09;;;;;;;2.80;1.92;;;;;;;13.40;100.00;95915.81;5055494;28;20378;-71
2023/05/09 05:22:35;;;;;;;2.03;1.92;;;;;;;13.39;100.00;95924.72;5048443;28;20403;-71
2023/05/09 05:25:02;;;;;;;2.65;2.22;;;;;;;13.49;100.00;95928.16;5065750;28;20043;-70
2023/05/09 05:27:27;;;;;;;3.42;2.13;;;;;;;13.46;100.00;95934.56;5048441;28;20013;-70
2023/05/09 05:29:53;;;;;;;3.08;2.10;;;;;;;13.48;100.00;95923.00;5049339;28;20467;-71
2023/05/09 05:32:18;;;;;;;4.90;2.22;;;;;;;13.39;100.00;95911.50;5052286;28;20031;-70
2023/05/09 05:34:44;;;;;;;2.05;1.95;;;;;;;13.37;100.00;95914.28;5051793;28;20055;-70
2023/05/09 05:37:09;;;;;;;3.00;2.20;;;;;;;13.35;100.00;95916.25;5053313;28;20025;-70
2023/05/09 05:39:34;;;;;;;4.03;2.30;;;;;;;13.34;100.00;95917.25;5070543;28;20053;-71
2023/05/09 05:42:00;;;;;;;3.42;1.98;;;;;;;13.40;100.00;95916.66;5051685;28;20025;-71
2023/05/09 05:44:25;;;;;;;2.35;2.15;;;;;;;13.38;100.00;95920.41;5050792;28;20040;-71
2023/05/09 05:46:51;;;;;;;3.53;2.00;;;;;;;13.37;100.00;95906.34;5050290;28;20407;-71
2023/05/09 05:49:16;;;;;;;4.30;2.45;;;;;;;13.44;100.00;95910.09;5047840;28;20025;-69
2023/05/09 05:51:41;;;;;;;2.97;2.20;;;;;;;13.52;100.00;95913.75;5049940;28;20025;-70
2023/05/09 05:54:07;;;;;;;4.15;3.15;;;;;;;13.59;100.00;95917.44;5051878;28;20029;-70
2023/05/09 05:56:32;;;;;;;7.38;4.13;;;;;;;13.70;100.00;95911.06;5050416;28;20076;-71
2023/05/09 05:58:58;;;;;;;7.35;4.50;;;;;;;13.78;100.00;95919.06;5046617;28;20037;-70
2023/05/09 06:01:23;;;;;;;6.85;3.92;;;;;;;13.79;100.00;95919.88;5069257;28;20024;-70
2023/05/09 06:03:53;;;;;;;6.25;2.97;;;;;;;13.79;100.00;95914.59;5048352;28;20017;-69
2023/05/09 06:06:21;;;;;;;3.83;2.83;;;;;;;13.89;100.00;95916.13;5062273;28;20104;-69
2023/05/09 06:08:50;;;;;;;3.30;3.00;;;;;;;13.85;100.00;95919.28;5050078;28;20079;-71
2023/05/09 06:11:16;;;;;;;4.70;3.92;;;;;;;13.84;100.00;95913.13;5068317;28;20024;-71
2023/05/09 06:13:41;;;;;;;4.55;3.78;;;;;;;13.86;100.00;95905.06;5049277;28;20041;-71
2023/05/09 06:16:07;;;;;;;3.92;3.30;;;;;;;13.89;100.00;95904.75;5047770;28;20094;-72
2023/05/09 06:18:36;;;;;;;5.53;2.85;;;;;;;14.06;100.00;95904.81;5047597;28;20025;-70
2023/05/09 06:21:06;;;;;;;4.28;2.70;;;;;;;14.26;100.00;95900.94;5045513;28;20106;-70
2023/05/09 06:23:32;;;;;;;6.85;2.60;;;;;;;14.11;100.00;95889.28;5052321;28;20106;-70
2023/05/09 06:25:57;;;;;;;2.22;2.08;;;;;;;14.17;100.00;95891.28;5052326;28;20034;-71
2023/05/09 06:28:22;;;;;;;2.78;2.58;;;;;;;14.36;100.00;95876.94;5050399;28;20035;-71
2023/05/09 06:30:48;;;;;;;4.22;2.58;;;;;;;14.54;100.00;95881.31;5051064;28;20026;-71
2023/05/09 06:33:14;;;;;;;5.00;2.47;;;;;;;14.58;100.00;95877.34;5051973;28;20025;-71
2023/05/09 06:35:39;;;;;;;2.72;2.53;;;;;;;14.72;100.00;95887.34;5048009;28;20474;-70
2023/05/09 06:38:05;;;;;;;4.88;2.70;;;;;;;14.88;100.00;95873.28;5049885;28;20021;-71
2023/05/09 06:40:31;;;;;;;5.18;2.40;;;;;;;14.78;100.00;95867.31;5049989;28;20440;-71
2023/05/09 06:42:57;;;;;;;3.72;2.20;;;;;;;14.78;100.00;95867.31;5062482;28;20032;-71
2023/05/09 06:45:22;;;;;;;2.20;2.00;;;;;;;14.93;100.00;95866.66;5051770;28;20024;-71
2023/05/09 06:47:47;;;;;;;2.10;2.00;;;;;;;14.83;100.00;95857.03;5066300;28;20462;-71
2023/05/09 06:50:13;;;;;;;2.30;2.20;;;;;;;14.89;100.00;95852.91;5066040;28;20021;-72
2023/05/09 06:52:38;;;;;;;3.88;2.40;;;;;;;14.99;100.00;95852.75;5046309;28;20108;-72
2023/05/09 06:55:04;;;;;;;2.53;2.33;;;;;;;15.11;100.00;95848.75;5050764;28;20056;-72
2023/05/09 06:57:30;;;;;;;3.17;1.90;;;;;;;15.22;100.00;95844.13;5050259;28;20102;-72
2023/05/09 06:59:55;;;;;;;2.40;2.17;;;;;;;15.27;100.00;95841.78;5044953;28;20154;-71
2023/05/09 07:02:20;;;;;;;2.10;2.00;;;;;;;15.35;98.88;95841.75;5050654;28;20033;-72
2023/05/09 07:04:46;;;;;;;3.63;2.22;;;;;;;15.53;99.43;95827.47;5049855;28;20024;-72
2023/05/09 07:07:11;;;;;;;2.58;2.38;;;;;;;15.83;96.98;95827.75;5045779;28;20025;-72
2023/05/09 07:09:37;;;;;;;2.30;2.03;;;;;;;15.93;96.11;95827.56;5048954;28;20556;-72
2023/05/09 07:12:02;;;;;;;2.40;1.90;;;;;;;16.16;93.32;95827.63;5066997;28;20094;-72
2023/05/09 07:14:28;;;;;;;1.90;1.80;;;;;;;16.22;90.89;95826.09;5051406;28;20024;-72
2023/05/09 07:16:53;;;;;;;2.15;1.90;;;;;;;16.21;91.69;95827.91;5050689;28;20021;-72
2023/05/09 07:19:19;;;;;;;3.65;1.67;;;;;;;16.20;92.91;95820.94;5049688;28;20040;-72
2023/05/09 07:21:44;;;;;;;2.03;1.55;;;;;;;16.17;93.35;95830.13;5049169;28;20500;-72
2023/05/09 07:24:09;;;;;;;5.65;2.00;;;;;;;16.26;92.52;95827.41;5050509;28;20106;-72
2023/05/09 07:26:35;;;;;;;3.17;1.95;;;;;;;16.35;92.49;95821.03;5047545;28;20013;-72
2023/05/09 07:29:01;;;;;;;2.45;1.80;;;;;;;16.45;92.25;95818.16;5064729;28;20507;-71
2023/05/09 07:31:26;;;;;;;2.25;1.77;;;;;;;16.64;92.25;95818.69;5047102;28;20029;-72
2023/05/09 07:33:52;;;;;;;2.30;2.10;;;;;;;16.86;90.34;95804.56;5043486;28;20031;-72
2023/05/09 07:36:17;;;;;;;1.98;1.88;;;;;;;17.25;88.72;95802.78;5046642;28;20041;-72
2023/05/09 07:38:42;;;;;;;3.40;1.83;;;;;;;17.52;86.16;95799.69;5047842;28;20157;-71
2023/05/09 07:41:08;;;;;;;2.00;1.88;;;;;;;17.58;85.51;95799.78;5044259;28;20032;-73
2023/05/09 07:43:33;;;;;;;4.65;1.83;;;;;;;17.78;84.02;95790.41;5048064;28;20033;-71
2023/05/09 07:45:59;;;;;;;3.47;2.08;;;;;;;17.91;83.92;95787.91;5047362;28;20025;-72
2023/05/09 07:48:25;;;;;;;2.30;1.95;;;;;;;17.98;83.92;95785.34;5046952;28;20379;-71
2023/05/09 07:50:50;;;;;;;2.08;1.88;;;;;;;17.97;82.33;95776.50;5045015;28;20460;-72
2023/05/09 07:53:16;;;;;;;3.05;1.50;;;;;;;17.91;81.91;95774.59;5046667;28;20020;-72
2023/05/09 07:55:43;;;;;;;2.97;1.73;;;;;;;17.83;81.65;95766.72;5051348;28;20025;-72
2023/05/09 07:58:09;;;;;;;1.80;1.65;;;;;;;17.64;82.39;95771.59;5048449;28;20021;-71
2023/05/09 08:00:34;;;;;;;2.80;1.60;;;;;;;17.64;81.87;95768.94;5053176;28;20036;-72
2023/05/09 08:03:00;;;;;;;2.15;1.63;;;;;;;17.68;81.86;95756.91;5053664;28;20054;-72
2023/05/09 08:05:25;;;;;;;1.63;1.52;;;;;;;17.90;80.80;95770.28;5066155;28;20389;-72
2023/05/09 08:07:51;;;;;;;1.45;1.42;;;;;;;18.06;79.41;95763.94;5053897;28;20047;-72
2023/05/09 08:10:16;;;;;;;1.55;1.45;;;;;;;18.15;79.45;95767.31;5050275;28;20022;-71
2023/05/09 08:12:42;;;;;;;2.83;1.30;;;;;;;18.17;79.30;95759.97;5054056;28;20021;-71
2023/05/09 08:15:08;;;;;;;1.35;1.35;;;;;;;18.23;78.09;95756.53;5054433;28;20485;-70
2023/05/09 08:17:33;;;;;;;2.00;1.80;;;;;;;18.67;78.69;95753.88;5046667;28;20025;-71
2023/05/09 08:19:58;;;;;;;2.65;1.92;;;;;;;18.94;77.58;95760.28;5054197;28;20047;-72
2023/05/09 08:22:24;;;;;;;2.70;1.67;;;;;;;19.05;77.05;95758.97;5055812;28;20017;-71
2023/05/09 08:24:49;;;;;;;3.20;1.88;;;;;;;19.28;74.08;95750.72;5058789;28;20024;-71
2023/05/09 08:27:15;;;;;;;3.13;1.90;;;;;;;19.15;75.73;95747.94;5060179;28;20067;-71
2023/05/09 08:29:42;;;;;;;4.22;1.98;;;;;;;19.32;74.34;95741.31;5054673;28;20032;-71
2023/05/09 08:32:08;;;;;;;2.08;1.90;;;;;;;19.55;72.69;95740.19;5056764;28;20033;-71
2023/05/09 08:34:34;;;;;;;3.30;1.90;;;;;;;19.60;72.97;95732.41;5055214;28;20035;-71
2023/05/09 08:37:00;;;;;;;2.08;1.98;;;;;;;20.12;69.70;95728.53;5056415;28;20028;-70
2023/05/09 08:39:25;;;;;;;3.20;1.88;;;;;;;20.44;68.27;95724.28;5055823;28;20627;-71
2023/05/09 08:41:56;;;;;;;3.90;1.80;;;;;;;20.78;66.05;95720.81;5053390;28;20083;-71
2023/05/09 08:44:23;;;;;;;1.90;1.80;;;;;;;21.07;62.94;95724.94;5053697;28;20045;-70
2023/05/09 08:46:51;;;;;;;2.17;1.75;;;;;;;20.82;65.36;95717.56;5055793;28;20021;-71
2023/05/09 08:49:19;;;;;;;1.90;1.80;;;;;;;20.86;64.88;95713.44;5055995;28;20021;-71
2023/05/09 08:51:46;;;;;;;1.70;1.60;;;;;;;20.93;66.68;95705.41;5055988;28;20029;-72
2023/05/09 08:54:13;;;;;;;4.85;2.00;;;;;;;21.59;65.09;95700.13;5056073;28;20111;-71
2023/05/09 08:56:39;;;;;;;4.18;2.00;;;;;;;21.97;65.63;95696.69;5056115;28;20458;-71
2023/05/09 08:59:05;;;;;;;2.63;1.63;;;;;;;22.01;59.65;95700.59;5055440;28;20017;-71
2023/05/09 09:01:32;;;;;;;1.63;1.63;;;;;;;22.00;61.97;95695.44;5055343;28;20408;-71
2023/05/09 09:03:59;;;;;;;2.10;2.00;;;;;;;22.26;61.61;95689.13;5055734;28;20021;-71
2023/05/09 09:06:25;;;;;;;2.08;1.40;;;;;;;21.95;61.93;95681.88;5055997;28;20025;-71
2023/05/09 09:08:53;;;;;;;2.05;1.58;;;;;;;21.89;59.42;95678.19;5050475;28;20529;-72
2023/05/09 09:11:21;;;;;;;3.38;1.45;;;;;;;22.49;59.47;95669.00;5054298;28;20056;-71
2023/05/09 09:13:48;;;;;;;1.90;1.80;;;;;;;22.79;57.55;95673.69;5054420;28;20027;-71
2023/05/09 09:16:21;;;;;;;1.50;1.40;;;;;;;22.82;55.95;95665.19;5053381;28;20048;-72
2023/05/09 09:18:50;;;;;;;1.63;1.63;;;;;;;22.27;58.38;95652.41;5053879;28;20396;-72
2023/05/09 09:21:18;;;;;;;3.05;1.55;;;;;;;22.58;57.88;95651.56;5054777;28;20113;-72
2023/05/09 09:23:46;;;;;;;3.47;1.42;;;;;;;22.80;58.25;95645.81;5070819;28;20052;-72
2023/05/09 09:26:12;;;;;;;6.90;1.70;;;;;;;23.00;57.93;95636.75;5052826;28;20024;-72
2023/05/09 09:28:38;;;;;;;3.58;1.67;;;;;;;23.15;55.64;95629.16;5055655;28;20032;-72
2023/05/09 09:31:30;;;;;;;2.05;1.40;;;;;;;22.55;58.92;95625.19;5047140;28;20025;-72
2023/05/09 09:34:00;;;;;;;3.33;1.60;;;;;;;22.96;59.23;95632.88;5052598;28;20029;-72
2023/05/09 09:36:27;;;;;;;1.48;1.35;;;;;;;22.98;57.58;95628.09;5047686;28;20021;-71
2023/05/09 09:38:57;;;;;;;1.38;1.30;;;;;;;23.01;57.29;95639.22;5053186;28;20095;-72
2023/05/09 09:41:32;;;;;;;1.38;1.27;;;;;;;22.57;58.53;95628.47;5054852;28;20021;-72
2023/05/09 09:43:57;;;;;;;2.38;1.60;;;;;;;23.37;54.14;95622.53;5048607;28;20075;-71
2023/05/09 09:46:23;;;;;;;1.83;1.58;;;;;;;22.89;55.56;95619.53;5036909;28;20060;-71
2023/05/09 09:48:53;;;;;;;2.95;1.52;;;;;;;23.32;54.70;95617.84;5053526;28;20028;-71
2023/05/09 09:51:19;;;;;;;1.60;1.50;;;;;;;23.10;53.96;95612.91;5055107;28;20425;-71
2023/05/09 09:53:45;;;;;;;1.50;1.40;;;;;;;22.35;55.72;95611.94;5054317;28;20025;-71
2023/05/09 09:56:11;;;;;;;1.48;1.35;;;;;;;22.30;55.93;95599.16;5051180;28;20512;-71
2023/05/09 09:58:37;;;;;;;2.10;1.70;;;;;;;21.93;58.36;95598.19;5047535;28;20016;-71
2023/05/09 10:01:12;;;;;;;1.95;1.75;;;;;;;21.98;57.93;95591.13;5053226;28;20021;-70
2023/05/09 10:03:43;;;;;;;1.70;1.60;;;;;;;21.96;58.65;95582.50;5048289;28;20116;-71
2023/05/09 10:06:15;;;;;;;2.92;1.73;;;;;;;21.41;61.72;95583.81;5054019;28;20035;-72
2023/05/09 10:08:41;;;;;;;1.50;1.50;;;;;;;21.97;59.42;95573.41;5052999;28;20035;-70
2023/05/09 10:11:08;;;;;;;2.08;1.98;;;;;;;21.63;60.49;95567.44;5053625;28;20032;-72
2023/05/09 10:13:35;;;;;;;1.65;1.55;;;;;;;22.25;59.06;95556.09;5054123;28;20082;-71
2023/05/09 10:16:02;;;;;;;2.20;2.00;;;;;;;22.73;57.80;95556.53;5051811;28;20029;-71
2023/05/09 10:18:32;;;;;;;2.40;1.63;;;;;;;22.90;57.70;95554.06;5040299;28;20026;-71
2023/05/09 10:21:02;;;;;;;1.75;1.65;;;;;;;23.10;58.91;95548.47;5042993;28;20065;-70
2023/05/09 10:23:35;;;;;;;1.23;1.23;;;;;;;23.80;53.70;95534.78;5048937;28;20044;-71
2023/05/09 10:26:15;;;;;;;1.27;1.23;;;;;;;24.26;50.25;95538.63;5048922;28;20432;-71
2023/05/09 10:28:43;;;;;;;1.33;1.23;;;;;;;24.40;49.82;95533.00;5053413;28;20029;-71
2023/05/09 10:31:24;;;;;;;1.73;1.20;;;;;;;24.98;46.07;95544.00;5047779;28;20028;-70
2023/05/09 10:33:50;;;;;;;1.08;1.00;;;;;;;24.49;48.47;95537.00;5053090;28;20028;-71
2023/05/09 10:36:20;;;;;;;1.50;1.50;;;;;;;25.12;45.48;95529.25;5053839;28;20416;-72
2023/05/09 10:38:53;;;;;;;3.13;1.35;;;;;;;24.86;45.29;95536.75;5053427;28;20049;-69
2023/05/09 10:41:23;;;;;;;1.77;1.67;;;;;;;24.48;46.25;95524.63;5053988;28;20044;-70
2023/05/09 10:43:48;;;;;;;1.08;1.08;;;;;;;23.86;49.08;95513.16;5047114;28;20160;-71
2023/05/09 10:46:14;;;;;;;3.30;1.35;;;;;;;24.08;47.12;95509.94;5050414;28;20048;-69
2023/05/09 10:48:41;;;;;;;1.55;1.40;;;;;;;24.08;45.80;95514.53;5054099;28;20056;-70
2023/05/09 10:51:08;;;;;;;1.52;1.42;;;;;;;23.10;50.26;95510.06;5054252;28;20029;-70
2023/05/09 10:53:45;;;;;;;2.63;1.45;;;;;;;23.27;48.80;95500.38;5053815;28;20066;-70
2023/05/09 10:56:34;;;;;;;1.63;1.52;;;;;;;23.12;50.17;95498.06;5054321;28;20025;-69
2023/05/09 10:59:00;;;;;;;1.40;1.30;;;;;;;23.64;50.18;95487.88;5054004;28;20028;-70
2023/05/09 11:01:35;;;;;;;1.63;1.52;;;;;;;24.06;47.23;95482.47;5050306;28;20028;-69
2023/05/09 11:04:08;;;;;;;1.23;1.23;;;;;;;24.10;46.65;95481.00;5053350;28;20559;-70
2023/05/09 11:06:44;;;;;;;1.55;1.48;;;;;;;24.11;48.10;95471.88;5068599;28;20013;-70
2023/05/09 11:09:32;;;;;;;1.30;1.30;;;;;;;24.15;46.86;95473.03;5053905;28;20100;-70
2023/05/09 11:12:06;;;;;;;1.73;1.52;;;;;;;24.32;46.95;95469.66;5051393;28;20111;-70
2023/05/09 11:14:44;;;;;;;1.50;1.40;;;;;;;24.30;46.28;95469.03;5055741;28;20064;-69
2023/05/09 11:17:13;;;;;;;1.30;1.30;;;;;;;24.73;45.41;95467.00;5050342;28;20021;-70
2023/05/09 11:19:41;;;;;;;1.80;1.42;;;;;;;24.25;46.38;95464.38;5053185;28;20024;-70
2023/05/09 11:22:31;;;;;;;2.47;1.45;;;;;;;24.08;46.98;95461.56;5053790;28;20032;-70
2023/05/09 11:25:06;;;;;;;1.20;1.20;;;;;;;24.05;46.30;95451.28;5053744;28;20037;-69
2023/05/09 11:27:47;;;;;;;3.00;1.50;;;;;;;23.76;46.81;95456.47;5051499;28;20022;-70
2023/05/09 11:30:19;;;;;;;2.85;1.50;;;;;;;23.10;51.07;95438.41;5056615;28;20154;-70